Time;durP1;ratioP1;P1;durP2;ratioP2;P2;SDS_P1;SDS_P2;PMS_P1;PMS_P2;Temp;Humidity;BMP_temperature;BMP_pressure;BME280_temperature;BME280_humidity;BME280_pressure;Samples;Min_cycle;Max_cycle;Signal;HPM_P1;HPM_P2
2022/06/26 00:01:27;;;;;;;0.10;0.10;;;19.00;99.90;;;;;;4985170;28;20548;-91
2022/06/26 00:03:52;;;;;;;0.10;0.00;;;19.10;99.90;;;;;;4993268;28;20642;-91
2022/06/26 00:06:18;;;;;;;0.10;0.00;;;19.10;99.90;;;;;;4992131;28;20185;-92
2022/06/26 00:08:43;;;;;;;0.10;0.10;;;19.00;99.90;;;;;;4994981;28;20192;-92
2022/06/26 00:11:09;;;;;;;0.10;0.10;;;19.00;99.90;;;;;;4988858;28;20572;-92
2022/06/26 00:13:34;;;;;;;0.10;0.10;;;19.00;99.90;;;;;;4971737;28;20588;-91
2022/06/26 00:16:00;;;;;;;0.10;0.10;;;18.90;99.90;;;;;;4988494;28;20200;-90
2022/06/26 00:18:25;;;;;;;0.10;0.00;;;18.90;99.90;;;;;;4992701;28;20669;-92
2022/06/26 00:20:51;;;;;;;0.10;0.10;;;18.80;99.90;;;;;;4991883;28;20866;-91
2022/06/26 00:23:17;;;;;;;0.10;0.00;;;18.80;99.90;;;;;;4975913;28;20196;-91
2022/06/26 00:25:42;;;;;;;0.10;0.00;;;18.70;99.90;;;;;;4990844;28;20189;-91
2022/06/26 00:28:08;;;;;;;0.10;0.00;;;18.80;99.90;;;;;;4993697;28;20661;-91
2022/06/26 00:30:37;;;;;;;0.10;0.10;;;18.80;99.90;;;;;;4974321;28;20292;-92
2022/06/26 00:33:03;;;;;;;0.10;0.00;;;18.80;99.90;;;;;;4993490;28;20213;-92
2022/06/26 00:35:29;;;;;;;0.10;0.10;;;18.70;99.90;;;;;;4992691;28;20452;-92
2022/06/26 00:37:55;;;;;;;0.10;0.00;;;18.90;99.90;;;;;;4990288;28;20555;-91
2022/06/26 00:40:21;;;;;;;0.10;0.10;;;18.80;99.90;;;;;;4990676;28;20451;-91
2022/06/26 00:42:47;;;;;;;0.10;0.00;;;18.90;99.90;;;;;;4992895;28;20448;-92
2022/06/26 00:45:12;;;;;;;0.10;0.00;;;18.90;99.90;;;;;;4976380;28;20189;-93
2022/06/26 00:47:38;;;;;;;0.10;0.00;;;19.00;99.90;;;;;;4992951;28;20260;-92
2022/06/26 00:50:07;;;;;;;0.10;0.10;;;18.90;99.90;;;;;;4975413;28;20247;-93
2022/06/26 00:52:33;;;;;;;0.10;0.07;;;18.80;99.90;;;;;;4976272;28;20642;-91
2022/06/26 00:54:59;;;;;;;0.10;0.10;;;18.80;99.90;;;;;;4992218;28;20948;-92
2022/06/26 00:57:24;;;;;;;0.10;0.00;;;18.80;99.90;;;;;;4993456;28;20494;-92
2022/06/26 00:59:50;;;;;;;0.10;0.10;;;18.70;99.90;;;;;;4992758;28;20189;-91
2022/06/26 01:02:16;;;;;;;0.10;0.00;;;18.60;99.90;;;;;;4990753;28;20232;-91
2022/06/26 01:04:42;;;;;;;0.10;0.00;;;18.70;99.90;;;;;;4992555;28;20675;-92
2022/06/26 01:07:08;;;;;;;0.10;0.10;;;18.60;99.90;;;;;;4990018;28;21027;-92
2022/06/26 01:09:33;;;;;;;0.10;0.10;;;18.60;99.90;;;;;;4991952;28;20608;-91
2022/06/26 01:11:59;;;;;;;0.10;0.00;;;18.70;99.90;;;;;;4991381;28;20495;-93
2022/06/26 01:14:25;;;;;;;0.10;0.10;;;18.70;99.90;;;;;;4992924;28;20562;-92
2022/06/26 01:16:50;;;;;;;0.10;0.00;;;18.70;99.90;;;;;;4970567;28;20186;-92
2022/06/26 01:19:18;;;;;;;0.10;0.10;;;18.90;99.90;;;;;;4992529;28;20197;-93
2022/06/26 01:21:44;;;;;;;0.10;0.10;;;18.80;99.90;;;;;;4975572;28;20216;-93
2022/06/26 01:24:10;;;;;;;0.10;0.00;;;18.80;99.90;;;;;;4992121;28;20513;-91
2022/06/26 01:26:36;;;;;;;0.10;0.10;;;18.90;99.90;;;;;;4973241;28;20224;-91
2022/06/26 01:29:02;;;;;;;0.10;0.00;;;18.90;99.90;;;;;;4979552;28;20436;-92
2022/06/26 01:31:28;;;;;;;0.10;0.10;;;19.10;99.90;;;;;;4974225;28;20452;-91
2022/06/26 01:33:54;;;;;;;0.10;0.00;;;19.00;99.90;;;;;;4991904;28;20533;-92
2022/06/26 01:36:19;;;;;;;0.10;0.10;;;19.00;99.90;;;;;;4959266;28;20650;-91
2022/06/26 01:38:45;;;;;;;0.10;0.10;;;18.90;99.90;;;;;;4992025;28;20613;-91
2022/06/26 01:41:11;;;;;;;0.10;0.00;;;18.80;99.90;;;;;;4991096;28;20189;-92
2022/06/26 01:43:38;;;;;;;0.10;0.00;;;18.90;99.90;;;;;;4991349;28;20466;-92
2022/06/26 01:46:05;;;;;;;0.10;0.00;;;18.80;99.90;;;;;;4991960;28;20225;-92
2022/06/26 01:48:32;;;;;;;0.10;0.00;;;18.70;99.90;;;;;;4972506;28;20463;-92
2022/06/26 01:50:59;;;;;;;0.10;0.00;;;18.70;99.90;;;;;;4979751;28;20444;-92
2022/06/26 01:53:25;;;;;;;0.10;0.10;;;18.70;99.90;;;;;;4991203;28;20495;-92
2022/06/26 01:55:51;;;;;;;0.10;0.10;;;18.60;99.90;;;;;;4983584;28;20452;-92
2022/06/26 01:58:17;;;;;;;0.10;0.00;;;18.50;99.90;;;;;;4991637;28;20448;-92
2022/06/26 02:00:45;;;;;;;0.10;0.10;;;18.60;99.90;;;;;;4988247;28;20193;-92
2022/06/26 02:03:11;;;;;;;0.10;0.00;;;18.50;99.90;;;;;;4992005;28;20538;-92
2022/06/26 02:05:37;;;;;;;0.10;0.00;;;18.50;99.90;;;;;;4990603;28;20458;-92
2022/06/26 02:08:04;;;;;;;0.10;0.00;;;18.50;99.90;;;;;;4990792;28;20538;-92
2022/06/26 02:16:00;;;;;;;0.10;0.00;;;18.50;99.90;;;;;;4989057;28;20483;-91
2022/06/26 02:18:26;;;;;;;0.10;0.00;;;18.50;99.90;;;;;;4969241;28;20460;-93
2022/06/26 02:20:51;;;;;;;0.10;0.10;;;18.60;99.90;;;;;;4981852;28;20448;-91
2022/06/26 02:23:18;;;;;;;0.10;0.10;;;18.60;99.90;;;;;;4984981;28;20452;-92
2022/06/26 02:25:43;;;;;;;0.10;0.10;;;18.70;99.90;;;;;;4991094;28;20197;-92
2022/06/26 02:28:09;;;;;;;0.10;0.10;;;18.70;99.90;;;;;;4972879;28;20445;-92
2022/06/26 02:30:35;;;;;;;0.10;0.00;;;18.70;99.90;;;;;;4991511;28;20189;-92
2022/06/26 02:33:00;;;;;;;0.10;0.00;;;18.70;99.90;;;;;;4991249;28;20235;-92
2022/06/26 02:35:28;;;;;;;0.10;0.10;;;18.70;99.90;;;;;;4973549;28;20605;-92
2022/06/26 02:37:54;;;;;;;0.10;0.00;;;18.70;99.90;;;;;;4992613;28;20195;-93
2022/06/26 02:40:21;;;;;;;0.10;0.10;;;18.70;99.90;;;;;;4972026;28;20489;-92
2022/06/26 02:42:46;;;;;;;0.10;0.00;;;18.70;99.90;;;;;;4988364;28;20443;-93
2022/06/26 02:45:12;;;;;;;0.10;0.00;;;18.70;99.90;;;;;;4991463;28;20460;-92
2022/06/26 02:47:38;;;;;;;0.10;0.00;;;18.70;99.90;;;;;;4992195;28;20181;-91
2022/06/26 02:50:05;;;;;;;0.10;0.00;;;18.60;99.90;;;;;;4971326;28;20447;-93
2022/06/26 02:52:31;;;;;;;0.10;0.10;;;18.70;99.90;;;;;;4988835;28;20483;-91
2022/06/26 02:54:56;;;;;;;0.10;0.00;;;18.70;99.90;;;;;;4991211;28;20460;-92
2022/06/26 02:57:22;;;;;;;0.10;0.00;;;18.70;99.90;;;;;;4973174;28;20332;-93
2022/06/26 02:59:47;;;;;;;0.10;0.07;;;18.60;99.90;;;;;;4989789;28;20184;-93
2022/06/26 03:02:13;;;;;;;0.10;0.00;;;18.60;99.90;;;;;;4991363;28;20193;-92
2022/06/26 03:04:39;;;;;;;0.10;0.00;;;18.60;99.90;;;;;;4991977;28;20200;-93
2022/06/26 03:07:05;;;;;;;0.10;0.00;;;18.50;99.90;;;;;;4990445;28;20229;-91
2022/06/26 03:09:30;;;;;;;0.10;0.00;;;18.50;99.90;;;;;;4972591;28;20863;-93
2022/06/26 03:11:56;;;;;;;0.10;0.00;;;18.50;99.90;;;;;;4992442;28;20263;-93
2022/06/26 03:14:21;;;;;;;0.10;0.10;;;18.40;99.90;;;;;;4977272;28;20292;-92
2022/06/26 03:16:47;;;;;;;0.10;0.00;;;18.50;99.90;;;;;;4983014;28;20299;-92
2022/06/26 03:19:12;;;;;;;0.10;0.00;;;18.50;99.90;;;;;;4976471;28;20639;-93
2022/06/26 03:21:38;;;;;;;0.10;0.10;;;18.50;99.90;;;;;;4990935;28;20203;-92
2022/06/26 03:24:04;;;;;;;0.10;0.00;;;18.50;99.90;;;;;;4977215;28;20208;-92
2022/06/26 03:26:34;;;;;;;0.10;0.10;;;18.50;99.90;;;;;;4994010;28;20238;-92
2022/06/26 03:29:02;;;;;;;0.10;0.00;;;18.50;99.90;;;;;;4977522;28;20228;-92
2022/06/26 03:31:28;;;;;;;0.10;0.00;;;18.50;99.90;;;;;;4994161;28;20444;-93
2022/06/26 03:33:55;;;;;;;0.10;0.00;;;18.50;99.90;;;;;;4983008;28;20492;-92
2022/06/26 03:36:21;;;;;;;0.10;0.00;;;18.50;99.90;;;;;;4994719;28;20812;-93
2022/06/26 03:38:47;;;;;;;0.10;0.00;;;18.60;99.90;;;;;;4995222;28;20470;-91
2022/06/26 03:41:12;;;;;;;0.10;0.10;;;18.60;99.90;;;;;;4976543;28;20963;-93
2022/06/26 03:43:38;;;;;;;0.10;0.00;;;18.60;99.90;;;;;;4987473;28;20666;-93
2022/06/26 03:46:04;;;;;;;0.10;0.10;;;18.60;99.90;;;;;;4975126;28;20774;-93
2022/06/26 03:48:30;;;;;;;0.10;0.10;;;18.60;99.90;;;;;;4990064;28;20193;-93
2022/06/26 03:50:56;;;;;;;0.10;0.10;;;18.60;99.90;;;;;;4974807;28;20446;-92
2022/06/26 03:53:23;;;;;;;0.10;0.00;;;18.60;99.90;;;;;;4992986;28;20928;-93
2022/06/26 03:55:49;;;;;;;0.10;0.00;;;18.60;99.90;;;;;;4993430;28;20400;-93
2022/06/26 03:58:14;;;;;;;0.10;0.10;;;18.60;99.90;;;;;;4993534;28;20979;-92
2022/06/26 04:00:40;;;;;;;0.10;0.00;;;18.60;99.90;;;;;;4988217;28;20181;-92
2022/06/26 04:03:06;;;;;;;0.10;0.00;;;18.60;99.90;;;;;;4994681;28;20692;-94
2022/06/26 04:05:37;;;;;;;0.10;0.10;;;18.70;99.90;;;;;;4994616;28;20637;-93
2022/06/26 04:08:03;;;;;;;0.10;0.10;;;18.70;99.90;;;;;;4994194;28;20502;-93
2022/06/26 04:10:28;;;;;;;0.10;0.00;;;18.80;99.90;;;;;;4995265;28;20443;-93
2022/06/26 04:12:57;;;;;;;0.10;0.00;;;18.80;99.90;;;;;;4991631;28;20522;-91
2022/06/26 04:15:23;;;;;;;0.10;0.00;;;18.90;99.90;;;;;;4994157;28;20228;-91
2022/06/26 04:17:48;;;;;;;0.10;0.00;;;18.80;99.90;;;;;;4989684;28;20474;-92
2022/06/26 04:20:14;;;;;;;0.10;0.00;;;18.80;99.90;;;;;;4982584;28;20610;-91
2022/06/26 04:22:39;;;;;;;0.10;0.10;;;18.90;99.90;;;;;;4982103;28;20181;-91
2022/06/26 04:25:05;;;;;;;0.10;0.00;;;18.90;99.90;;;;;;4970948;28;20208;-91
2022/06/26 04:27:31;;;;;;;0.10;0.10;;;18.90;99.90;;;;;;4975042;28;20278;-91
2022/06/26 04:29:56;;;;;;;0.10;0.00;;;19.00;99.90;;;;;;4972167;28;20196;-92
2022/06/26 04:32:22;;;;;;;0.10;0.00;;;19.10;99.90;;;;;;4991482;28;20228;-91
2022/06/26 04:34:47;;;;;;;0.10;0.10;;;19.10;99.90;;;;;;4974955;28;20284;-92
2022/06/26 04:37:13;;;;;;;0.10;0.00;;;19.10;99.90;;;;;;4991868;28;20197;-92
2022/06/26 04:39:38;;;;;;;0.10;0.00;;;19.20;99.90;;;;;;4993531;28;20549;-91
2022/06/26 04:42:04;;;;;;;0.10;0.00;;;19.30;99.90;;;;;;4992360;28;20560;-93
2022/06/26 04:44:30;;;;;;;0.10;0.00;;;19.30;99.90;;;;;;4991100;28;20181;-91
2022/06/26 04:46:55;;;;;;;0.10;0.00;;;19.50;99.90;;;;;;4980454;28;20181;-91
2022/06/26 04:49:21;;;;;;;0.10;0.00;;;19.60;99.90;;;;;;4994151;28;20275;-92
2022/06/26 04:51:46;;;;;;;0.10;0.00;;;19.60;99.90;;;;;;4993942;28;20200;-92
2022/06/26 04:54:12;;;;;;;0.10;0.00;;;19.70;99.90;;;;;;4956464;28;20380;-92
2022/06/26 04:56:38;;;;;;;0.10;0.00;;;19.80;99.90;;;;;;4970615;28;20193;-93
2022/06/26 04:59:05;;;;;;;0.10;0.00;;;20.00;99.90;;;;;;4973581;28;20198;-92
2022/06/26 05:01:31;;;;;;;0.10;0.00;;;20.10;99.90;;;;;;4950995;28;20449;-92
2022/06/26 05:03:57;;;;;;;0.10;0.00;;;20.10;99.90;;;;;;4957219;28;20476;-90
2022/06/26 05:06:23;;;;;;;0.10;0.00;;;20.00;99.90;;;;;;4951449;28;20969;-92
2022/06/26 05:08:49;;;;;;;0.10;0.00;;;20.10;99.90;;;;;;4973621;28;20456;-92
2022/06/26 05:11:14;;;;;;;0.10;0.00;;;20.30;99.90;;;;;;4969363;28;20198;-91
2022/06/26 05:13:40;;;;;;;0.10;0.00;;;20.40;99.90;;;;;;4985540;28;20487;-92
2022/06/26 05:16:08;;;;;;;0.10;0.00;;;20.50;99.90;;;;;;4965795;28;20202;-90
2022/06/26 05:18:34;;;;;;;0.10;0.00;;;20.60;99.90;;;;;;4958578;28;20198;-92
2022/06/26 05:21:00;;;;;;;0.10;0.00;;;20.70;99.90;;;;;;4955945;28;20459;-91
2022/06/26 05:23:25;;;;;;;0.10;0.00;;;20.80;99.90;;;;;;4971968;28;20228;-91
2022/06/26 05:25:51;;;;;;;0.10;0.00;;;20.90;99.90;;;;;;4947203;28;20205;-91
2022/06/26 05:28:17;;;;;;;0.10;0.00;;;20.90;99.90;;;;;;4975354;28;20228;-90
2022/06/26 05:30:43;;;;;;;0.10;0.00;;;21.00;99.90;;;;;;4972023;28;20547;-91
2022/06/26 05:33:09;;;;;;;0.10;0.00;;;21.10;99.90;;;;;;4953708;28;20985;-90
2022/06/26 05:35:35;;;;;;;0.10;0.00;;;21.20;99.90;;;;;;4971591;28;20198;-90
2022/06/26 05:38:01;;;;;;;0.10;0.00;;;21.30;99.90;;;;;;4971362;28;20456;-90
2022/06/26 05:40:27;;;;;;;0.10;0.00;;;21.40;99.90;;;;;;4953243;28;20253;-93
2022/06/26 05:42:54;;;;;;;0.10;0.00;;;21.50;99.90;;;;;;4951942;28;20441;-92
2022/06/26 05:45:20;;;;;;;0.07;0.00;;;21.60;99.90;;;;;;4954045;28;20784;-93
2022/06/26 05:47:45;;;;;;;0.10;0.00;;;21.60;99.90;;;;;;4946951;28;20491;-92
2022/06/26 05:50:11;;;;;;;0.10;0.00;;;21.70;99.90;;;;;;4971013;28;20240;-93
2022/06/26 05:52:36;;;;;;;0.10;0.00;;;21.80;99.90;;;;;;4971474;28;20264;-91
2022/06/26 05:55:02;;;;;;;0.10;0.00;;;21.80;99.90;;;;;;4970988;28;20237;-90
2022/06/26 05:57:28;;;;;;;0.10;0.00;;;21.90;99.90;;;;;;4955957;28;20264;-92
2022/06/26 05:59:53;;;;;;;0.10;0.00;;;22.00;99.90;;;;;;4956511;28;20240;-93
2022/06/26 06:02:19;;;;;;;0.10;0.00;;;22.10;99.90;;;;;;4985498;28;20190;-91
2022/06/26 06:04:44;;;;;;;0.10;0.00;;;22.20;99.90;;;;;;4973265;28;20196;-92
2022/06/26 06:07:10;;;;;;;0.10;0.00;;;22.40;99.90;;;;;;4972644;28;20212;-92
2022/06/26 06:09:35;;;;;;;0.10;0.00;;;22.50;99.90;;;;;;4971384;28;20190;-91
2022/06/26 06:12:01;;;;;;;0.10;0.00;;;22.40;99.90;;;;;;4950897;28;20736;-92
2022/06/26 06:14:27;;;;;;;0.10;0.00;;;22.40;99.90;;;;;;4969835;28;20226;-92
2022/06/26 06:16:52;;;;;;;0.10;0.00;;;22.40;99.90;;;;;;4952664;28;20495;-92
2022/06/26 06:19:18;;;;;;;0.10;0.00;;;22.40;99.90;;;;;;4952253;28;20244;-92
2022/06/26 06:21:43;;;;;;;0.10;0.00;;;22.40;99.90;;;;;;4952797;28;20182;-92
2022/06/26 06:24:09;;;;;;;0.10;0.00;;;22.30;99.90;;;;;;4947054;28;20202;-93
2022/06/26 06:26:35;;;;;;;0.10;0.00;;;22.40;99.90;;;;;;4970082;28;20202;-90
2022/06/26 06:29:01;;;;;;;0.10;0.00;;;22.40;99.90;;;;;;4949893;28;20780;-94
2022/06/26 06:31:28;;;;;;;0.10;0.00;;;22.60;99.90;;;;;;4966934;28;20476;-89
2022/06/26 06:33:53;;;;;;;0.10;0.00;;;22.70;99.90;;;;;;4971561;28;20225;-95
2022/06/26 06:36:19;;;;;;;0.07;0.00;;;22.80;99.90;;;;;;4948356;28;20437;-91
2022/06/26 06:38:45;;;;;;;0.10;0.00;;;23.10;99.90;;;;;;4958200;28;20610;-92
2022/06/26 06:41:10;;;;;;;0.10;0.10;;;23.20;99.90;;;;;;4972588;28;20189;-96
2022/06/26 06:46:10;;;;;;;0.10;0.00;;;23.50;99.90;;;;;;4951823;23;20763;-95
2022/06/26 06:48:36;;;;;;;0.10;0.10;;;23.70;99.90;;;;;;4948260;29;20519;-95
2022/06/26 06:51:01;;;;;;;0.10;0.00;;;23.90;99.90;;;;;;4935057;29;20333;-93
2022/06/26 06:53:27;;;;;;;0.10;0.00;;;24.10;99.90;;;;;;4948408;28;20225;-94
2022/06/26 06:55:52;;;;;;;0.10;0.00;;;24.10;99.90;;;;;;4947140;29;20190;-95
2022/06/26 06:58:18;;;;;;;0.10;0.00;;;24.10;99.90;;;;;;4937680;29;20194;-96
2022/06/26 07:00:46;;;;;;;0.10;0.00;;;24.10;99.90;;;;;;4940950;29;20183;-96
2022/06/26 07:03:12;;;;;;;0.07;0.00;;;24.00;99.90;;;;;;4946897;28;20686;-95
2022/06/26 07:08:06;;;;;;;0.10;0.00;;;24.00;99.90;;;;;;4958436;28;20486;-96
2022/06/26 07:10:31;;;;;;;0.10;0.00;;;24.00;99.90;;;;;;4951235;28;20454;-94
2022/06/26 07:12:59;;;;;;;0.10;0.00;;;24.20;99.90;;;;;;4951572;28;20297;-96
2022/06/26 07:15:26;;;;;;;0.10;0.00;;;24.30;99.90;;;;;;4955453;28;20187;-96
2022/06/26 07:17:51;;;;;;;0.10;0.00;;;24.10;99.90;;;;;;4927013;29;20442;-91
2022/06/26 07:20:17;;;;;;;0.10;0.00;;;24.20;99.90;;;;;;4982047;23;20506;-95
2022/06/26 07:22:43;;;;;;;0.10;0.00;;;24.20;99.90;;;;;;4965365;28;20203;-96
2022/06/26 07:25:09;;;;;;;0.10;0.00;;;24.20;99.90;;;;;;4951646;29;20653;-96
2022/06/26 07:27:34;;;;;;;0.10;0.00;;;24.30;99.90;;;;;;4938500;28;20226;-94
2022/06/26 07:30:00;;;;;;;0.10;0.00;;;24.30;99.90;;;;;;4938446;28;20194;-93
2022/06/26 07:32:27;;;;;;;0.10;0.00;;;24.40;99.90;;;;;;4936967;29;20183;-96
2022/06/26 07:34:53;;;;;;;0.10;0.00;;;24.60;99.90;;;;;;4952251;28;20591;-96
2022/06/26 07:37:19;;;;;;;0.10;0.00;;;24.60;99.90;;;;;;4946885;29;20446;-96
2022/06/26 07:39:45;;;;;;;0.10;0.00;;;24.90;99.90;;;;;;4959193;28;20201;-93
2022/06/26 07:42:12;;;;;;;0.10;0.10;;;24.90;99.90;;;;;;4969920;28;20265;-91
2022/06/26 07:44:38;;;;;;;0.10;0.00;;;25.10;99.90;;;;;;4956564;28;20450;-96
2022/06/26 07:47:04;;;;;;;0.10;0.00;;;25.00;99.90;;;;;;4962210;28;21014;-93
2022/06/26 07:49:29;;;;;;;0.07;0.00;;;24.90;99.90;;;;;;4966250;28;20190;-95
2022/06/26 07:51:55;;;;;;;0.07;0.00;;;25.00;99.90;;;;;;4940944;28;20687;-93
2022/06/26 07:54:21;;;;;;;0.10;0.00;;;25.20;99.90;;;;;;4958027;29;20226;-93
2022/06/26 07:56:48;;;;;;;0.10;0.00;;;25.40;99.90;;;;;;4951159;28;20183;-96
2022/06/26 07:59:14;;;;;;;0.07;0.00;;;25.30;99.90;;;;;;4947413;28;20186;-91
2022/06/26 08:01:41;;;;;;;0.10;0.00;;;25.50;99.90;;;;;;4958801;28;20513;-92
2022/06/26 08:04:07;;;;;;;0.07;0.00;;;25.60;99.90;;;;;;4938861;29;20241;-93
2022/06/26 08:06:33;;;;;;;0.00;0.00;;;25.60;99.90;;;;;;4942878;29;20449;-91
2022/06/26 08:08:59;;;;;;;0.10;0.00;;;25.70;99.90;;;;;;4959047;28;20446;-92
2022/06/26 08:11:24;;;;;;;0.07;0.00;;;25.70;99.90;;;;;;4956088;29;20179;-92
2022/06/26 08:13:50;;;;;;;0.10;0.00;;;25.60;99.90;;;;;;4953265;28;20221;-90
2022/06/26 08:16:15;;;;;;;0.10;0.00;;;25.60;99.90;;;;;;4955944;28;20553;-96
2022/06/26 08:18:41;;;;;;;0.10;0.00;;;25.60;99.90;;;;;;4937445;29;20210;-91
2022/06/26 08:23:52;;;;;;;0.10;0.00;;;25.80;99.90;;;;;;4954180;28;20225;-94
2022/06/26 08:26:18;;;;;;;0.10;0.00;;;26.30;99.90;;;;;;4962536;28;20444;-94
2022/06/26 08:28:56;;;;;;;0.10;0.00;;;26.60;99.90;;;;;;4951162;28;20438;-95
2022/06/26 08:31:21;;;;;;;0.10;0.00;;;26.70;99.90;;;;;;4959198;29;20203;-93
2022/06/26 08:33:49;;;;;;;0.10;0.00;;;26.70;99.90;;;;;;4935524;29;20477;-95
2022/06/26 08:36:15;;;;;;;0.10;0.00;;;26.80;99.90;;;;;;4957152;28;20201;-93
2022/06/26 08:38:40;;;;;;;0.10;0.00;;;26.70;99.90;;;;;;4955582;28;20469;-89
2022/06/26 08:41:08;;;;;;;0.10;0.00;;;27.00;99.90;;;;;;4950630;28;20210;-93
2022/06/26 08:43:34;;;;;;;0.10;0.00;;;26.80;99.90;;;;;;4938680;29;20721;-96
2022/06/26 08:46:04;;;;;;;0.10;0.00;;;27.20;99.90;;;;;;4950482;28;22513;-95
2022/06/26 08:48:41;;;;;;;0.07;0.00;;;27.30;99.90;;;;;;4933954;29;20514;-96
2022/06/26 08:51:07;;;;;;;0.10;0.00;;;27.40;99.90;;;;;;4929750;29;20849;-89
2022/06/26 08:53:34;;;;;;;0.10;0.00;;;27.30;99.90;;;;;;4953613;28;20481;-95
2022/06/26 08:56:00;;;;;;;0.10;0.00;;;27.30;99.90;;;;;;4939813;29;20503;-94
2022/06/26 08:58:26;;;;;;;0.10;0.00;;;27.20;99.90;;;;;;4954830;28;20532;-93
2022/06/26 09:00:51;;;;;;;0.10;0.00;;;27.10;99.90;;;;;;4944808;28;20904;-94
2022/06/26 09:03:17;;;;;;;0.10;0.00;;;27.30;99.90;;;;;;4948011;29;20174;-96
2022/06/26 09:05:42;;;;;;;0.07;0.00;;;27.90;99.90;;;;;;4977558;23;20242;-89
2022/06/26 09:08:20;;;;;;;0.10;0.00;;;27.80;99.90;;;;;;4957176;28;20561;-96
2022/06/26 09:10:47;;;;;;;0.10;0.00;;;27.70;99.90;;;;;;4968716;28;20558;-95
2022/06/26 09:13:13;;;;;;;0.10;0.00;;;27.80;99.90;;;;;;4949708;28;20466;-95
2022/06/26 09:15:40;;;;;;;0.10;0.00;;;27.90;99.90;;;;;;4972589;28;20476;-93
2022/06/26 09:18:07;;;;;;;0.10;0.00;;;27.90;99.90;;;;;;4955711;28;20445;-91
2022/06/26 09:20:48;;;;;;;0.10;0.00;;;28.50;99.90;;;;;;4963823;28;20440;-94
2022/06/26 09:23:15;;;;;;;0.10;0.00;;;28.80;99.90;;;;;;4985089;28;20480;-89
2022/06/26 09:25:43;;;;;;;0.10;0.00;;;29.10;99.90;;;;;;4972534;28;20977;-94
2022/06/26 09:28:18;;;;;;;0.10;0.00;;;28.90;99.90;;;;;;4970668;28;20882;-87
2022/06/26 09:30:50;;;;;;;0.07;0.00;;;28.40;99.90;;;;;;4967007;28;21480;-90
2022/06/26 09:33:18;;;;;;;0.10;0.00;;;29.00;99.90;;;;;;4951067;28;20469;-89
2022/06/26 09:35:44;;;;;;;0.10;0.00;;;29.20;99.90;;;;;;4951422;28;20584;-94
2022/06/26 09:38:10;;;;;;;0.10;0.00;;;29.40;99.90;;;;;;4972485;28;20670;-93
2022/06/26 09:40:35;;;;;;;0.10;0.00;;;29.50;99.90;;;;;;4970343;28;20201;-93
2022/06/26 09:43:01;;;;;;;0.10;0.00;;;29.70;99.90;;;;;;4972542;28;20232;-92
2022/06/26 09:45:39;;;;;;;0.10;0.00;;;30.00;99.90;;;;;;4951327;28;20186;-92
2022/06/26 09:48:08;;;;;;;0.10;0.00;;;30.00;99.90;;;;;;4973591;28;20448;-93
2022/06/26 09:50:34;;;;;;;0.10;0.00;;;30.00;99.90;;;;;;4976393;28;20456;-94
2022/06/26 09:53:00;;;;;;;0.10;0.00;;;30.40;99.90;;;;;;4973088;28;20485;-89
2022/06/26 09:55:27;;;;;;;0.10;0.00;;;30.60;99.90;;;;;;4970645;28;20240;-88
2022/06/26 09:57:52;;;;;;;0.10;0.00;;;30.10;99.90;;;;;;4972489;28;20460;-92
2022/06/26 10:00:18;;;;;;;0.10;0.00;;;29.80;99.90;;;;;;4971774;28;20445;-95
2022/06/26 10:08:29;;;;;;;0.10;0.00;;;29.80;99.90;;;;;;4920816;28;20801;-89
2022/06/26 10:10:57;;;;;;;0.10;0.00;;;29.50;99.90;;;;;;4971233;28;20453;-92
2022/06/26 10:13:24;;;;;;;0.10;0.00;;;29.70;99.90;;;;;;4952944;28;20821;-89
2022/06/26 10:16:06;;;;;;;0.10;0.00;;;29.50;99.90;;;;;;4967231;28;20445;-92
2022/06/26 10:19:09;;;;;;;0.10;0.00;;;29.50;99.90;;;;;;4968116;28;20453;-94
2022/06/26 10:21:37;;;;;;;0.10;0.00;;;30.00;99.90;;;;;;4946724;28;20953;-92
2022/06/26 10:24:04;;;;;;;0.10;0.00;;;30.20;99.90;;;;;;4950130;28;20457;-91
2022/06/26 10:26:30;;;;;;;0.10;0.00;;;29.80;99.90;;;;;;4971277;28;20553;-92
2022/06/26 10:29:00;;;;;;;0.00;0.00;;;30.00;99.90;;;;;;4954903;28;20460;-94
2022/06/26 10:31:30;;;;;;;0.07;0.00;;;30.00;99.90;;;;;;4969695;28;20441;-89
2022/06/26 10:34:07;;;;;;;0.10;0.00;;;30.10;99.90;;;;;;4951189;28;20481;-92
2022/06/26 10:36:34;;;;;;;0.10;0.00;;;30.30;99.90;;;;;;4964328;28;21158;-89
2022/06/26 10:39:06;;;;;;;0.00;0.00;;;30.30;99.90;;;;;;4966825;28;20453;-95
2022/06/26 10:44:49;;;;;;;0.10;0.00;;;30.50;99.90;;;;;;4973930;28;20429;-96
2022/06/26 10:47:16;;;;;;;0.00;0.00;;;30.90;99.90;;;;;;4969930;28;20575;-92
2022/06/26 10:49:52;;;;;;;0.10;0.00;;;31.00;99.90;;;;;;4971667;28;20845;-89
2022/06/26 10:52:29;;;;;;;0.10;0.00;;;31.30;99.90;;;;;;4967326;28;20465;-89
2022/06/26 10:54:59;;;;;;;0.07;0.00;;;30.90;99.90;;;;;;4965754;28;20467;-91
2022/06/26 10:57:34;;;;;;;0.10;0.00;;;31.80;99.90;;;;;;4971637;28;20468;-93
2022/06/26 11:00:00;;;;;;;0.00;0.00;;;32.20;99.90;;;;;;4949879;28;20457;-93
2022/06/26 11:02:34;;;;;;;0.00;0.00;;;31.80;99.90;;;;;;4961730;28;20441;-91
2022/06/26 11:04:59;;;;;;;0.10;0.00;;;32.20;99.90;;;;;;4966242;28;20489;-90
2022/06/26 11:07:25;;;;;;;0.00;0.00;;;32.50;99.90;;;;;;4967518;28;20959;-92
2022/06/26 11:09:55;;;;;;;0.10;0.00;;;32.90;99.90;;;;;;4967422;28;20182;-91
2022/06/26 11:12:21;;;;;;;0.10;0.00;;;32.20;99.90;;;;;;4957129;28;20195;-95
2022/06/26 11:14:46;;;;;;;0.00;0.00;;;32.30;99.90;;;;;;4966614;28;21000;-94
2022/06/26 11:17:12;;;;;;;0.00;0.00;;;32.90;99.90;;;;;;4970432;28;20256;-89
2022/06/26 11:22:27;;;;;;;0.07;0.00;;;32.60;99.90;;;;;;4972245;28;20205;-91
2022/06/26 11:24:55;;;;;;;0.00;0.00;;;32.40;99.90;;;;;;4953842;28;20536;-87
2022/06/26 11:27:25;;;;;;;0.00;0.00;;;32.10;99.90;;;;;;4968941;28;20448;-90
2022/06/26 11:29:51;;;;;;;0.07;0.00;;;32.80;99.90;;;;;;4967682;28;20465;-85
2022/06/26 11:32:21;;;;;;;0.10;0.00;;;33.00;99.90;;;;;;4947285;28;20450;-86
2022/06/26 11:34:51;;;;;;;0.10;0.00;;;32.30;99.90;;;;;;4965713;28;20887;-91
2022/06/26 11:37:16;;;;;;;0.00;0.00;;;32.20;99.90;;;;;;4954588;28;20508;-93
2022/06/26 11:39:42;;;;;;;0.00;0.00;;;32.70;99.90;;;;;;4972286;28;20449;-87
2022/06/26 11:42:22;;;;;;;0.10;0.00;;;32.50;99.90;;;;;;4973865;28;20185;-87
2022/06/26 11:44:52;;;;;;;0.07;0.00;;;32.70;99.90;;;;;;4970385;28;20451;-91
2022/06/26 11:47:20;;;;;;;0.10;0.00;;;33.10;99.90;;;;;;4972473;28;20465;-91
2022/06/26 11:49:46;;;;;;;0.10;0.00;;;33.20;99.90;;;;;;4970896;28;20441;-87
2022/06/26 11:52:12;;;;;;;0.10;0.00;;;33.50;99.90;;;;;;4964706;28;20481;-90
2022/06/26 11:54:38;;;;;;;0.10;0.00;;;33.10;99.90;;;;;;4949148;28;20253;-91
2022/06/26 11:57:13;;;;;;;0.07;0.00;;;32.60;99.90;;;;;;4955488;28;20492;-93
2022/06/26 11:59:45;;;;;;;0.07;0.00;;;32.80;99.90;;;;;;4971180;28;20193;-90
2022/06/26 12:02:21;;;;;;;0.07;0.00;;;32.40;99.90;;;;;;4951700;28;20445;-96
2022/06/26 12:05:01;;;;;;;0.10;0.00;;;32.20;99.90;;;;;;4958631;28;20563;-96
2022/06/26 12:07:39;;;;;;;0.00;0.00;;;31.30;99.90;;;;;;4957669;28;20571;-91
2022/06/26 12:10:05;;;;;;;0.10;0.00;;;30.70;99.90;;;;;;4954228;28;20531;-88
2022/06/26 12:12:30;;;;;;;0.10;0.00;;;30.20;99.90;;;;;;4956736;28;20580;-94
2022/06/26 12:14:57;;;;;;;0.10;0.00;;;29.90;99.90;;;;;;4954650;28;20451;-93
2022/06/26 12:17:24;;;;;;;0.10;0.00;;;29.80;99.90;;;;;;4973253;28;20178;-91
2022/06/26 12:19:50;;;;;;;0.10;0.00;;;29.80;99.90;;;;;;4975808;28;20440;-96
2022/06/26 12:22:32;;;;;;;0.10;0.00;;;30.00;99.90;;;;;;4973222;28;20500;-94
2022/06/26 12:24:59;;;;;;;0.00;0.00;;;29.80;99.90;;;;;;4957238;28;20229;-95
2022/06/26 12:27:39;;;;;;;0.10;0.00;;;29.70;99.90;;;;;;4980899;28;20794;-96
2022/06/26 12:30:18;;;;;;;0.10;0.00;;;29.60;99.90;;;;;;4998721;28;20514;-96
2022/06/26 12:32:44;;;;;;;0.10;0.00;;;29.40;99.90;;;;;;4960765;28;20449;-96
2022/06/26 12:35:09;;;;;;;0.10;0.00;;;29.40;99.90;;;;;;4984826;28;20471;-96
2022/06/26 12:37:36;;;;;;;0.10;0.00;;;29.40;99.90;;;;;;4985567;28;20257;-92
2022/06/26 12:40:02;;;;;;;0.10;0.00;;;29.60;99.90;;;;;;4958577;28;20196;-96
2022/06/26 12:42:28;;;;;;;0.10;0.00;;;29.30;99.90;;;;;;4979708;28;20448;-96
2022/06/26 12:44:53;;;;;;;0.00;0.00;;;31.00;99.90;;;;;;4966148;28;20444;-92
2022/06/26 12:47:19;;;;;;;0.10;0.00;;;30.70;99.90;;;;;;4962930;28;20209;-96
2022/06/26 12:49:49;;;;;;;0.10;0.00;;;29.50;99.90;;;;;;4959202;28;20193;-94
2022/06/26 12:52:15;;;;;;;0.10;0.00;;;29.50;99.90;;;;;;4970723;28;20182;-94
2022/06/26 12:54:40;;;;;;;0.10;0.00;;;30.00;99.90;;;;;;4976513;28;20543;-91
2022/06/26 12:57:06;;;;;;;0.07;0.00;;;30.80;99.90;;;;;;4978967;28;20273;-94
2022/06/26 12:59:31;;;;;;;0.10;0.00;;;30.20;99.90;;;;;;4972428;28;20205;-92
2022/06/26 13:01:57;;;;;;;0.10;0.00;;;29.20;99.90;;;;;;4975205;28;20194;-93
2022/06/26 13:04:23;;;;;;;0.10;0.00;;;30.50;99.90;;;;;;4975257;28;20225;-95
2022/06/26 13:06:48;;;;;;;0.10;0.00;;;31.40;99.90;;;;;;4970060;28;20275;-93
2022/06/26 13:09:14;;;;;;;0.10;0.00;;;30.20;99.90;;;;;;4970735;28;20251;-92
2022/06/26 13:11:42;;;;;;;0.10;0.00;;;30.10;99.90;;;;;;4971400;28;20194;-96